DAL939 KLAX-KJFK
Flight info
| Callsign | DAL939 |
|---|---|
| Flight time | N/A |
| Altitude | 37000 |
| Route | DOTSS2 CLEEE PKE GUP KK45A ROKNE BUM VHP/N0462F390 KI63Q KLYNE Q29 WWSHR JHW Q476 WLKES PUCKY1 |
| Aircraft | A339/H-SADE1E2E3GHIJ3J5M1P2RWXY/LB2D1 |
Departure
| Time | 2026-04-26 00:02 |
|---|---|
| Airport | Los Angeles International Airport (KLAX) |
Arrival
| Time | N/A |
|---|---|
| Airport | John F. Kennedy International Airport (KJFK) |
| Time | Latitude | Longitude | Altitude | Speed | Heading |
|---|---|---|---|---|---|
| 2026-04-25 23:14 | 33.94741 | -118.40359 | 126 ft | 0 kts | 223° |
| 2026-04-25 23:44 | 33.94750 | -118.40350 | 126 ft | 2 kts | 223° |
| 2026-04-25 23:44 | 33.94761 | -118.40337 | 125 ft | 2 kts | 223° |
| 2026-04-25 23:44 | 33.94771 | -118.40324 | 125 ft | 2 kts | 249° |
| 2026-04-25 23:45 | 33.94774 | -118.40306 | 125 ft | 2 kts | 274° |
| 2026-04-25 23:45 | 33.94770 | -118.40288 | 125 ft | 2 kts | 299° |
| 2026-04-25 23:45 | 33.94761 | -118.40273 | 126 ft | 2 kts | 323° |
| 2026-04-25 23:45 | 33.94748 | -118.40265 | 126 ft | 2 kts | 348° |
| 2026-04-25 23:46 | 33.94745 | -118.40264 | 126 ft | 1 kts | 352° |
| 2026-04-25 23:46 | 33.94770 | -118.40269 | 126 ft | 2 kts | 353° |
| 2026-04-25 23:46 | 33.94778 | -118.40270 | 126 ft | 1 kts | 353° |
| 2026-04-25 23:46 | 33.94780 | -118.40271 | 126 ft | 0 kts | 353° |
| 2026-04-25 23:49 | 33.94788 | -118.40273 | 126 ft | 2 kts | 342° |
| 2026-04-25 23:49 | 33.94804 | -118.40289 | 126 ft | 3 kts | 306° |
| 2026-04-25 23:50 | 33.94811 | -118.40328 | 126 ft | 5 kts | 269° |
| 2026-04-25 23:50 | 33.94808 | -118.40379 | 126 ft | 5 kts | 263° |
| 2026-04-25 23:50 | 33.94802 | -118.40427 | 127 ft | 5 kts | 262° |
| 2026-04-25 23:50 | 33.94797 | -118.40475 | 128 ft | 5 kts | 262° |
| 2026-04-25 23:51 | 33.94791 | -118.40530 | 129 ft | 7 kts | 263° |
| 2026-04-25 23:51 | 33.94783 | -118.40606 | 129 ft | 10 kts | 263° |
| 2026-04-25 23:51 | 33.94774 | -118.40700 | 130 ft | 11 kts | 263° |
| 2026-04-25 23:51 | 33.94763 | -118.40797 | 131 ft | 11 kts | 263° |
| 2026-04-25 23:52 | 33.94752 | -118.40898 | 130 ft | 12 kts | 263° |
| 2026-04-25 23:52 | 33.94741 | -118.40999 | 132 ft | 11 kts | 262° |
| 2026-04-25 23:52 | 33.94731 | -118.41099 | 132 ft | 12 kts | 264° |
| 2026-04-25 23:52 | 33.94713 | -118.41203 | 132 ft | 12 kts | 252° |
| 2026-04-25 23:53 | 33.94693 | -118.41305 | 130 ft | 10 kts | 262° |
| 2026-04-25 23:53 | 33.94666 | -118.41371 | 129 ft | 9 kts | 205° |
| 2026-04-25 23:53 | 33.94594 | -118.41371 | 129 ft | 11 kts | 174° |
| 2026-04-25 23:53 | 33.94511 | -118.41360 | 129 ft | 12 kts | 173° |
| 2026-04-25 23:54 | 33.94416 | -118.41345 | 129 ft | 14 kts | 173° |
| 2026-04-25 23:54 | 33.94311 | -118.41331 | 129 ft | 15 kts | 173° |
| 2026-04-25 23:54 | 33.94201 | -118.41315 | 129 ft | 16 kts | 173° |
| 2026-04-25 23:54 | 33.94089 | -118.41297 | 130 ft | 15 kts | 173° |
| 2026-04-25 23:55 | 33.93984 | -118.41282 | 132 ft | 14 kts | 173° |
| 2026-04-25 23:55 | 33.93887 | -118.41268 | 134 ft | 13 kts | 174° |
| 2026-04-25 23:55 | 33.93796 | -118.41257 | 135 ft | 11 kts | 172° |
| 2026-04-25 23:55 | 33.93758 | -118.41192 | 135 ft | 11 kts | 87° |
| 2026-04-25 23:56 | 33.93767 | -118.41090 | 135 ft | 13 kts | 83° |
| 2026-04-25 23:56 | 33.93779 | -118.40973 | 135 ft | 15 kts | 83° |
| 2026-04-25 23:56 | 33.93793 | -118.40842 | 135 ft | 15 kts | 83° |
| 2026-04-25 23:56 | 33.93807 | -118.40710 | 135 ft | 16 kts | 83° |
| 2026-04-25 23:57 | 33.93821 | -118.40572 | 133 ft | 17 kts | 83° |
| 2026-04-25 23:57 | 33.93836 | -118.40418 | 130 ft | 19 kts | 83° |
| 2026-04-25 23:57 | 33.93853 | -118.40253 | 129 ft | 20 kts | 83° |
| 2026-04-25 23:57 | 33.93870 | -118.40086 | 127 ft | 20 kts | 83° |
| 2026-04-25 23:58 | 33.93889 | -118.39909 | 124 ft | 22 kts | 83° |
| 2026-04-25 23:58 | 33.93908 | -118.39721 | 120 ft | 23 kts | 83° |
| 2026-04-25 23:58 | 33.93927 | -118.39529 | 119 ft | 22 kts | 83° |
| 2026-04-25 23:58 | 33.93947 | -118.39336 | 116 ft | 23 kts | 83° |
| 2026-04-25 23:59 | 33.93967 | -118.39142 | 115 ft | 23 kts | 83° |
| 2026-04-25 23:59 | 33.93986 | -118.38945 | 112 ft | 23 kts | 84° |
| 2026-04-25 23:59 | 33.94006 | -118.38753 | 112 ft | 22 kts | 83° |
| 2026-04-25 23:59 | 33.94025 | -118.38567 | 112 ft | 22 kts | 83° |
| 2026-04-26 00:00 | 33.94044 | -118.38382 | 110 ft | 22 kts | 83° |
| 2026-04-26 00:00 | 33.94062 | -118.38209 | 109 ft | 16 kts | 83° |
| 2026-04-26 00:00 | 33.94074 | -118.38096 | 109 ft | 11 kts | 82° |
| 2026-04-26 00:00 | 33.94060 | -118.38022 | 109 ft | 8 kts | 141° |
| 2026-04-26 00:01 | 33.94007 | -118.38007 | 109 ft | 7 kts | 189° |
| 2026-04-26 00:01 | 33.93983 | -118.38047 | 109 ft | 6 kts | 252° |
| 2026-04-26 00:01 | 33.93973 | -118.38126 | 109 ft | 20 kts | 264° |
| 2026-04-26 00:01 | 33.93929 | -118.38562 | 113 ft | 81 kts | 263° |
| 2026-04-26 00:02 | 33.93838 | -118.39457 | 118 ft | 132 kts | 263° |
| 2026-04-26 00:02 | 33.93709 | -118.40715 | 220 ft | 165 kts | 264° |
| 2026-04-26 00:02 | 33.93573 | -118.42111 | 702 ft | 169 kts | 262° |
| 2026-04-26 00:02 | 33.93446 | -118.43536 | 1208 ft | 175 kts | 263° |
| 2026-04-26 00:03 | 33.93317 | -118.44983 | 1745 ft | 177 kts | 263° |
| 2026-04-26 00:03 | 33.93011 | -118.46426 | 2187 ft | 181 kts | 244° |
| 2026-04-26 00:03 | 33.92255 | -118.47691 | 2490 ft | 193 kts | 230° |
| 2026-04-26 00:03 | 33.91324 | -118.48921 | 2762 ft | 208 kts | 230° |
| 2026-04-26 00:04 | 33.90327 | -118.50266 | 3068 ft | 223 kts | 231° |
| 2026-04-26 00:04 | 33.89279 | -118.51725 | 3413 ft | 238 kts | 231° |
| 2026-04-26 00:04 | 33.88171 | -118.53306 | 3796 ft | 252 kts | 231° |
| 2026-04-26 00:04 | 33.86945 | -118.54858 | 4357 ft | 259 kts | 222° |
| 2026-04-26 00:05 | 33.85335 | -118.55750 | 5030 ft | 264 kts | 188° |
| 2026-04-26 00:05 | 33.83522 | -118.55479 | 5706 ft | 269 kts | 166° |
| 2026-04-26 00:05 | 33.81717 | -118.54863 | 6335 ft | 272 kts | 168° |
| 2026-04-26 00:05 | 33.79858 | -118.54314 | 7000 ft | 274 kts | 170° |
| 2026-04-26 00:06 | 33.78021 | -118.53879 | 7698 ft | 273 kts | 173° |
| 2026-04-26 00:06 | 33.76141 | -118.53464 | 8425 ft | 273 kts | 173° |
| 2026-04-26 00:06 | 33.74298 | -118.53052 | 9141 ft | 273 kts | 173° |
| 2026-04-26 00:06 | 33.72446 | -118.52552 | 9781 ft | 277 kts | 167° |
| 2026-04-26 00:07 | 33.70663 | -118.51592 | 10333 ft | 288 kts | 151° |
| 2026-04-26 00:07 | 33.69167 | -118.49865 | 10570 ft | 315 kts | 127° |
| 2026-04-26 00:07 | 33.68302 | -118.47334 | 10872 ft | 336 kts | 112° |
| 2026-04-26 00:07 | 33.67579 | -118.44632 | 11154 ft | 351 kts | 112° |
| 2026-04-26 00:08 | 33.66794 | -118.41783 | 11461 ft | 364 kts | 114° |
| 2026-04-26 00:08 | 33.65910 | -118.38917 | 11786 ft | 376 kts | 115° |
| 2026-04-26 00:08 | 33.65084 | -118.35901 | 12200 ft | 388 kts | 109° |
| 2026-04-26 00:08 | 33.64561 | -118.32689 | 12757 ft | 396 kts | 101° |
| 2026-04-26 00:09 | 33.64452 | -118.29382 | 13310 ft | 404 kts | 93° |
| 2026-04-26 00:09 | 33.64458 | -118.25996 | 13900 ft | 407 kts | 94° |
| 2026-04-26 00:09 | 33.64454 | -118.22594 | 14477 ft | 411 kts | 94° |
| 2026-04-26 00:09 | 33.64436 | -118.19169 | 15050 ft | 414 kts | 95° |
| 2026-04-26 00:10 | 33.64423 | -118.15686 | 15565 ft | 420 kts | 94° |
| 2026-04-26 00:10 | 33.64426 | -118.12185 | 16087 ft | 425 kts | 94° |
| 2026-04-26 00:10 | 33.64440 | -118.08670 | 16647 ft | 428 kts | 94° |
| 2026-04-26 00:10 | 33.64451 | -118.05056 | 17189 ft | 432 kts | 94° |
| 2026-04-26 00:11 | 33.64454 | -118.01437 | 17711 ft | 436 kts | 94° |
| 2026-04-26 00:11 | 33.64453 | -117.97826 | 18242 ft | 440 kts | 95° |
| 2026-04-26 00:11 | 33.64448 | -117.94134 | 18749 ft | 445 kts | 95° |
| 2026-04-26 00:11 | 33.64440 | -117.90402 | 19256 ft | 449 kts | 95° |
| 2026-04-26 00:12 | 33.64432 | -117.86636 | 19743 ft | 453 kts | 95° |
| 2026-04-26 00:12 | 33.64451 | -117.82852 | 20204 ft | 459 kts | 92° |
| 2026-04-26 00:12 | 33.64689 | -117.79023 | 20648 ft | 467 kts | 88° |
| 2026-04-26 00:12 | 33.65208 | -117.75163 | 21095 ft | 474 kts | 82° |
| 2026-04-26 00:13 | 33.65933 | -117.71277 | 21558 ft | 478 kts | 80° |
| 2026-04-26 00:13 | 33.66708 | -117.67361 | 21991 ft | 482 kts | 80° |
| 2026-04-26 00:13 | 33.67487 | -117.63451 | 22436 ft | 485 kts | 81° |
| 2026-04-26 00:13 | 33.68268 | -117.59479 | 22867 ft | 488 kts | 81° |
| 2026-04-26 00:14 | 33.69035 | -117.55521 | 23248 ft | 492 kts | 81° |
| 2026-04-26 00:14 | 33.69810 | -117.51482 | 23647 ft | 496 kts | 81° |
| 2026-04-26 00:14 | 33.70581 | -117.47443 | 24038 ft | 499 kts | 81° |
| 2026-04-26 00:14 | 33.71353 | -117.43383 | 24412 ft | 503 kts | 81° |
| 2026-04-26 00:15 | 33.72133 | -117.39276 | 24823 ft | 506 kts | 81° |
| 2026-04-26 00:15 | 33.72913 | -117.35162 | 25174 ft | 509 kts | 81° |
| 2026-04-26 00:15 | 33.73700 | -117.31004 | 25526 ft | 512 kts | 82° |
| 2026-04-26 00:15 | 33.74441 | -117.26855 | 25898 ft | 513 kts | 84° |
| 2026-04-26 00:16 | 33.74929 | -117.22607 | 26235 ft | 512 kts | 90° |
| 2026-04-26 00:16 | 33.75104 | -117.18358 | 26544 ft | 511 kts | 96° |
| 2026-04-26 00:16 | 33.75046 | -117.14108 | 26891 ft | 511 kts | 98° |
| 2026-04-26 00:16 | 33.74923 | -117.09811 | 27197 ft | 514 kts | 98° |
| 2026-04-26 00:17 | 33.74798 | -117.05561 | 27498 ft | 517 kts | 98° |
| 2026-04-26 00:17 | 33.74687 | -117.01268 | 27826 ft | 519 kts | 98° |
| 2026-04-26 00:17 | 33.74588 | -116.96922 | 28122 ft | 522 kts | 97° |
| 2026-04-26 00:17 | 33.74493 | -116.92548 | 28380 ft | 526 kts | 97° |
| 2026-04-26 00:18 | 33.74399 | -116.88122 | 28665 ft | 529 kts | 97° |
| 2026-04-26 00:18 | 33.74307 | -116.83756 | 29138 ft | 527 kts | 97° |
| 2026-04-26 00:18 | 33.74209 | -116.79398 | 29604 ft | 526 kts | 97° |
| 2026-04-26 00:18 | 33.74106 | -116.74972 | 29976 ft | 526 kts | 97° |
| 2026-04-26 00:19 | 33.74003 | -116.70633 | 30295 ft | 527 kts | 97° |
| 2026-04-26 00:19 | 33.73898 | -116.66229 | 30626 ft | 528 kts | 98° |
| 2026-04-26 00:19 | 33.73791 | -116.61821 | 30980 ft | 528 kts | 97° |
| 2026-04-26 00:19 | 33.73684 | -116.57419 | 31339 ft | 527 kts | 97° |
| 2026-04-26 00:20 | 33.73576 | -116.53062 | 31692 ft | 527 kts | 98° |
| 2026-04-26 00:20 | 33.73462 | -116.48644 | 31991 ft | 528 kts | 97° |
| 2026-04-26 00:20 | 33.73350 | -116.44278 | 32255 ft | 529 kts | 98° |
| 2026-04-26 00:20 | 33.73233 | -116.39815 | 32528 ft | 531 kts | 98° |
| 2026-04-26 00:21 | 33.73122 | -116.35448 | 32831 ft | 531 kts | 97° |
| 2026-04-26 00:21 | 33.73002 | -116.30984 | 33120 ft | 531 kts | 98° |
| 2026-04-26 00:21 | 33.72885 | -116.26569 | 33388 ft | 531 kts | 98° |
| 2026-04-26 00:21 | 33.72762 | -116.22173 | 33685 ft | 531 kts | 98° |
| 2026-04-26 00:22 | 33.72658 | -116.17770 | 33952 ft | 532 kts | 97° |
| 2026-04-26 00:22 | 33.72728 | -116.13328 | 34192 ft | 535 kts | 93° |
| 2026-04-26 00:22 | 33.73030 | -116.08887 | 34420 ft | 539 kts | 88° |
| 2026-04-26 00:22 | 33.73587 | -116.04435 | 34645 ft | 542 kts | 84° |
| 2026-04-26 00:23 | 33.74401 | -116.00002 | 34846 ft | 545 kts | 79° |
| 2026-04-26 00:23 | 33.75475 | -115.95605 | 35071 ft | 547 kts | 75° |
| 2026-04-26 00:23 | 33.76681 | -115.91267 | 35286 ft | 548 kts | 73° |
| 2026-04-26 00:23 | 33.77910 | -115.86963 | 35469 ft | 548 kts | 73° |
| 2026-04-26 00:24 | 33.79145 | -115.82645 | 35652 ft | 549 kts | 73° |
| 2026-04-26 00:24 | 33.80373 | -115.78297 | 35871 ft | 549 kts | 73° |
| 2026-04-26 00:24 | 33.81580 | -115.73981 | 36088 ft | 550 kts | 74° |
| 2026-04-26 00:24 | 33.82784 | -115.69624 | 36309 ft | 550 kts | 74° |
| 2026-04-26 00:25 | 33.83992 | -115.65236 | 36528 ft | 551 kts | 74° |
| 2026-04-26 00:25 | 33.85177 | -115.60912 | 36718 ft | 551 kts | 74° |
| 2026-04-26 00:25 | 33.86383 | -115.56525 | 36792 ft | 552 kts | 74° |
| 2026-04-26 00:26 | 33.88779 | -115.47760 | 36774 ft | 554 kts | 74° |
| 2026-04-26 00:26 | 33.91184 | -115.38953 | 36756 ft | 553 kts | 74° |
| 2026-04-26 00:27 | 33.93573 | -115.30187 | 36736 ft | 553 kts | 75° |
| 2026-04-26 00:27 | 33.94753 | -115.25828 | 36889 ft | 553 kts | 75° |
| 2026-04-26 00:27 | 33.95946 | -115.21416 | 36796 ft | 552 kts | 74° |
| 2026-04-26 00:28 | 33.98308 | -115.12673 | 36748 ft | 551 kts | 75° |
| 2026-04-26 00:28 | 34.00669 | -115.03912 | 36740 ft | 551 kts | 75° |
| 2026-04-26 00:29 | 34.03027 | -114.95136 | 36736 ft | 550 kts | 75° |
| 2026-04-26 00:29 | 34.05366 | -114.86387 | 36731 ft | 551 kts | 75° |
| 2026-04-26 00:30 | 34.07695 | -114.77648 | 36724 ft | 551 kts | 74° |
| 2026-04-26 00:30 | 34.10021 | -114.68900 | 36733 ft | 551 kts | 74° |
| 2026-04-26 00:31 | 34.12354 | -114.60096 | 36737 ft | 551 kts | 75° |
| 2026-04-26 00:31 | 34.14664 | -114.51322 | 36740 ft | 551 kts | 75° |
| 2026-04-26 00:32 | 34.16967 | -114.42538 | 36739 ft | 552 kts | 74° |
| 2026-04-26 00:32 | 34.20426 | -114.29308 | 36741 ft | 551 kts | 75° |
| 2026-04-26 00:33 | 34.22716 | -114.20503 | 36739 ft | 551 kts | 75° |
| 2026-04-26 00:33 | 34.25008 | -114.11662 | 36744 ft | 557 kts | 75° |
| 2026-04-26 00:34 | 34.27315 | -114.02741 | 36747 ft | 563 kts | 75° |
| 2026-04-26 00:34 | 34.29652 | -113.93654 | 36751 ft | 567 kts | 75° |
| 2026-04-26 00:35 | 34.31982 | -113.84592 | 36763 ft | 566 kts | 75° |
| 2026-04-26 00:35 | 34.34313 | -113.75491 | 36781 ft | 566 kts | 75° |
| 2026-04-26 00:36 | 34.36628 | -113.66406 | 36793 ft | 566 kts | 75° |
| 2026-04-26 00:36 | 34.38927 | -113.57367 | 36809 ft | 566 kts | 75° |
| 2026-04-26 00:37 | 34.41232 | -113.48263 | 36834 ft | 565 kts | 75° |
| 2026-04-26 00:37 | 34.43521 | -113.39191 | 36848 ft | 566 kts | 74° |
| 2026-04-26 00:38 | 34.45816 | -113.30083 | 36855 ft | 566 kts | 75° |
| 2026-04-26 00:38 | 34.48085 | -113.21014 | 36868 ft | 566 kts | 75° |
| 2026-04-26 00:39 | 34.50352 | -113.11941 | 36877 ft | 566 kts | 75° |
| 2026-04-26 00:39 | 34.52241 | -113.04346 | 36886 ft | 567 kts | 75° |
| 2026-04-26 00:40 | 34.54889 | -112.93679 | 36904 ft | 566 kts | 75° |
| 2026-04-26 00:40 | 34.57134 | -112.84581 | 36923 ft | 566 kts | 75° |
| 2026-04-26 00:41 | 34.59386 | -112.75442 | 36938 ft | 566 kts | 75° |
| 2026-04-26 00:41 | 34.61628 | -112.66299 | 36943 ft | 566 kts | 75° |
| 2026-04-26 00:42 | 34.63858 | -112.57186 | 36949 ft | 565 kts | 75° |
| 2026-04-26 00:42 | 34.66071 | -112.48102 | 36951 ft | 565 kts | 75° |
| 2026-04-26 00:43 | 34.68286 | -112.38969 | 36955 ft | 565 kts | 75° |
| 2026-04-26 00:43 | 34.70507 | -112.29783 | 36948 ft | 570 kts | 76° |
| 2026-04-26 00:44 | 34.72725 | -112.20570 | 36955 ft | 571 kts | 75° |
| 2026-04-26 00:44 | 34.74954 | -112.11290 | 36965 ft | 573 kts | 75° |
| 2026-04-26 00:45 | 34.76794 | -112.03598 | 36964 ft | 573 kts | 75° |
| 2026-04-26 00:45 | 34.79380 | -111.92759 | 36952 ft | 573 kts | 75° |
| 2026-04-26 00:46 | 34.81585 | -111.83469 | 36952 ft | 573 kts | 75° |
| 2026-04-26 00:46 | 34.83783 | -111.74174 | 36963 ft | 572 kts | 75° |
| 2026-04-26 00:47 | 34.85973 | -111.64883 | 36975 ft | 572 kts | 75° |
| 2026-04-26 00:47 | 34.88138 | -111.55639 | 36993 ft | 572 kts | 75° |
| 2026-04-26 00:48 | 34.90313 | -111.46343 | 36990 ft | 572 kts | 75° |
| 2026-04-26 00:48 | 34.92475 | -111.37074 | 36986 ft | 572 kts | 75° |
| 2026-04-26 00:49 | 34.94640 | -111.27751 | 36992 ft | 571 kts | 75° |
| 2026-04-26 00:49 | 34.96789 | -111.18458 | 36991 ft | 570 kts | 76° |
| 2026-04-26 00:50 | 34.98911 | -111.09227 | 36989 ft | 570 kts | 75° |
| 2026-04-26 00:50 | 35.01040 | -110.99951 | 36965 ft | 569 kts | 76° |
| 2026-04-26 00:51 | 35.03164 | -110.90655 | 36961 ft | 569 kts | 75° |
| 2026-04-26 00:51 | 35.05280 | -110.81363 | 36958 ft | 571 kts | 75° |
| 2026-04-26 00:52 | 35.07381 | -110.72109 | 36942 ft | 570 kts | 75° |
| 2026-04-26 00:52 | 35.09484 | -110.62799 | 36936 ft | 571 kts | 76° |
| 2026-04-26 00:53 | 35.11591 | -110.53442 | 36961 ft | 571 kts | 75° |
| 2026-04-26 00:53 | 35.13686 | -110.44096 | 36966 ft | 572 kts | 75° |
| 2026-04-26 00:54 | 35.15762 | -110.34788 | 36974 ft | 572 kts | 76° |
| 2026-04-26 00:54 | 35.17840 | -110.25446 | 36975 ft | 572 kts | 76° |
| 2026-04-26 00:55 | 35.19908 | -110.16110 | 36978 ft | 572 kts | 76° |
| 2026-04-26 00:55 | 35.21986 | -110.06690 | 36985 ft | 573 kts | 76° |
| 2026-04-26 00:56 | 35.24048 | -109.97323 | 36983 ft | 573 kts | 76° |
| 2026-04-26 00:56 | 35.26096 | -109.87954 | 36996 ft | 572 kts | 76° |
| 2026-04-26 00:57 | 35.28144 | -109.78554 | 36994 ft | 573 kts | 76° |
| 2026-04-26 00:57 | 35.30180 | -109.69174 | 37003 ft | 573 kts | 76° |
| 2026-04-26 00:58 | 35.32207 | -109.59806 | 37006 ft | 572 kts | 76° |
| 2026-04-26 00:58 | 35.34232 | -109.50388 | 37016 ft | 573 kts | 76° |
| 2026-04-26 00:59 | 35.36249 | -109.40994 | 37020 ft | 572 kts | 76° |
| 2026-04-26 00:59 | 35.38261 | -109.31564 | 37034 ft | 573 kts | 76° |
| 2026-04-26 01:00 | 35.40251 | -109.22218 | 37047 ft | 572 kts | 76° |
| 2026-04-26 01:00 | 35.42247 | -109.12781 | 37050 ft | 572 kts | 76° |
| 2026-04-26 01:01 | 35.44236 | -109.03348 | 37062 ft | 572 kts | 76° |
| 2026-04-26 01:01 | 35.46212 | -108.93954 | 37059 ft | 572 kts | 76° |
| 2026-04-26 01:02 | 35.48313 | -108.84582 | 37032 ft | 571 kts | 72° |
| 2026-04-26 01:02 | 35.50785 | -108.75389 | 37023 ft | 572 kts | 71° |
| 2026-04-26 01:03 | 35.53316 | -108.66139 | 37026 ft | 572 kts | 71° |
| 2026-04-26 01:03 | 35.55811 | -108.56924 | 37049 ft | 571 kts | 71° |
| 2026-04-26 01:04 | 35.58281 | -108.47729 | 37053 ft | 572 kts | 71° |
| 2026-04-26 01:04 | 35.60759 | -108.38461 | 37057 ft | 571 kts | 71° |
| 2026-04-26 01:05 | 35.63224 | -108.29224 | 37060 ft | 571 kts | 72° |
| 2026-04-26 01:05 | 35.65685 | -108.19938 | 37059 ft | 572 kts | 72° |
| 2026-04-26 01:06 | 35.68133 | -108.10674 | 37052 ft | 571 kts | 71° |
| 2026-04-26 01:06 | 35.70575 | -108.01421 | 37042 ft | 571 kts | 72° |
| 2026-04-26 01:07 | 35.73008 | -107.92147 | 37046 ft | 571 kts | 71° |
| 2026-04-26 01:07 | 35.75429 | -107.82896 | 37050 ft | 571 kts | 71° |
| 2026-04-26 01:08 | 35.77851 | -107.73603 | 37046 ft | 571 kts | 71° |
| 2026-04-26 01:08 | 35.80259 | -107.64337 | 37043 ft | 571 kts | 71° |
| 2026-04-26 01:09 | 35.82668 | -107.55041 | 37056 ft | 571 kts | 72° |
| 2026-04-26 01:09 | 35.85075 | -107.45722 | 37055 ft | 571 kts | 71° |
| 2026-04-26 01:10 | 35.87455 | -107.36448 | 37060 ft | 571 kts | 72° |
| 2026-04-26 01:10 | 35.89837 | -107.27168 | 37059 ft | 572 kts | 72° |
| 2026-04-26 01:11 | 35.92226 | -107.17793 | 37071 ft | 571 kts | 72° |
| 2026-04-26 01:11 | 35.94594 | -107.08468 | 37081 ft | 571 kts | 72° |
| 2026-04-26 01:12 | 35.96952 | -106.99165 | 37085 ft | 572 kts | 72° |
| 2026-04-26 01:12 | 35.99309 | -106.89831 | 37080 ft | 572 kts | 72° |
| 2026-04-26 01:13 | 36.01666 | -106.80447 | 37072 ft | 573 kts | 72° |
| 2026-04-26 01:13 | 36.04009 | -106.71107 | 37072 ft | 572 kts | 72° |
| 2026-04-26 01:14 | 36.06353 | -106.61720 | 37074 ft | 573 kts | 71° |
| 2026-04-26 01:14 | 36.08679 | -106.52372 | 37073 ft | 572 kts | 72° |
| 2026-04-26 01:15 | 36.10995 | -106.43024 | 37077 ft | 572 kts | 72° |
| 2026-04-26 01:15 | 36.13314 | -106.33630 | 37071 ft | 572 kts | 72° |
| 2026-04-26 01:16 | 36.15615 | -106.24260 | 37075 ft | 572 kts | 72° |
| 2026-04-26 01:16 | 36.17918 | -106.14859 | 37056 ft | 571 kts | 72° |
| 2026-04-26 01:17 | 36.20219 | -106.05440 | 37054 ft | 572 kts | 72° |
| 2026-04-26 01:17 | 36.22489 | -105.96114 | 37045 ft | 571 kts | 72° |
| 2026-04-26 01:18 | 36.24770 | -105.86709 | 37057 ft | 571 kts | 72° |
| 2026-04-26 01:18 | 36.27032 | -105.77331 | 37068 ft | 570 kts | 72° |
| 2026-04-26 01:19 | 36.29293 | -105.67919 | 37074 ft | 569 kts | 72° |
| 2026-04-26 01:19 | 36.31538 | -105.58553 | 37079 ft | 568 kts | 72° |
| 2026-04-26 01:20 | 36.33777 | -105.49175 | 37079 ft | 568 kts | 72° |
| 2026-04-26 01:20 | 36.35997 | -105.39819 | 37078 ft | 568 kts | 72° |
| 2026-04-26 01:21 | 36.38209 | -105.30479 | 37067 ft | 567 kts | 72° |
| 2026-04-26 01:21 | 36.40419 | -105.21096 | 37066 ft | 567 kts | 72° |
| 2026-04-26 01:22 | 36.42612 | -105.11767 | 37075 ft | 566 kts | 72° |
| 2026-04-26 01:22 | 36.44800 | -105.02403 | 37072 ft | 565 kts | 72° |
| 2026-04-26 01:23 | 36.46975 | -104.93088 | 37076 ft | 565 kts | 72° |
| 2026-04-26 01:23 | 36.49150 | -104.83727 | 37061 ft | 565 kts | 72° |
| 2026-04-26 01:24 | 36.51306 | -104.74408 | 37048 ft | 566 kts | 72° |
| 2026-04-26 01:24 | 36.53461 | -104.65049 | 37037 ft | 566 kts | 72° |
| 2026-04-26 01:25 | 36.55622 | -104.55615 | 37029 ft | 567 kts | 72° |
| 2026-04-26 01:25 | 36.57763 | -104.46268 | 37016 ft | 568 kts | 72° |
| 2026-04-26 01:26 | 36.59904 | -104.36851 | 36996 ft | 568 kts | 72° |
| 2026-04-26 01:26 | 36.62046 | -104.27406 | 37011 ft | 567 kts | 73° |
| 2026-04-26 01:27 | 36.64178 | -104.17963 | 37020 ft | 569 kts | 73° |
| 2026-04-26 01:27 | 36.66294 | -104.08556 | 37012 ft | 570 kts | 72° |
| 2026-04-26 01:28 | 36.68421 | -103.99059 | 37000 ft | 570 kts | 73° |
| 2026-04-26 01:28 | 36.70540 | -103.89561 | 36994 ft | 570 kts | 73° |
| 2026-04-26 01:29 | 36.72642 | -103.80111 | 36990 ft | 569 kts | 72° |
| 2026-04-26 01:29 | 36.74739 | -103.70638 | 36979 ft | 569 kts | 72° |
| 2026-04-26 01:30 | 36.76831 | -103.61154 | 36973 ft | 569 kts | 72° |
| 2026-04-26 01:30 | 36.78915 | -103.51633 | 36965 ft | 568 kts | 72° |
| 2026-04-26 01:31 | 36.80985 | -103.42170 | 36956 ft | 569 kts | 72° |
| 2026-04-26 01:31 | 36.83055 | -103.32660 | 36941 ft | 568 kts | 73° |
| 2026-04-26 01:32 | 36.85084 | -103.23275 | 36941 ft | 562 kts | 72° |
| 2026-04-26 01:32 | 36.87105 | -103.13911 | 36932 ft | 561 kts | 72° |
| 2026-04-26 01:33 | 36.89129 | -103.04516 | 36918 ft | 560 kts | 73° |
| 2026-04-26 01:33 | 36.91142 | -102.95113 | 36914 ft | 561 kts | 72° |
| 2026-04-26 01:34 | 36.93128 | -102.85796 | 36912 ft | 559 kts | 72° |
| 2026-04-26 01:34 | 36.95114 | -102.76431 | 36901 ft | 558 kts | 73° |
| 2026-04-26 01:35 | 36.97084 | -102.67119 | 36900 ft | 558 kts | 73° |
| 2026-04-26 01:35 | 36.99046 | -102.57778 | 36895 ft | 556 kts | 72° |
| 2026-04-26 01:36 | 37.01003 | -102.48441 | 36891 ft | 556 kts | 73° |
| 2026-04-26 01:37 | 37.03912 | -102.34488 | 36881 ft | 555 kts | 73° |
| 2026-04-26 01:37 | 37.05849 | -102.25143 | 36873 ft | 554 kts | 73° |
| 2026-04-26 01:38 | 37.07771 | -102.15830 | 36875 ft | 554 kts | 73° |
| 2026-04-26 01:38 | 37.09679 | -102.06553 | 36873 ft | 553 kts | 73° |
| 2026-04-26 01:39 | 37.11576 | -101.97282 | 36869 ft | 553 kts | 73° |
| 2026-04-26 01:39 | 37.13475 | -101.87951 | 36865 ft | 552 kts | 73° |
| 2026-04-26 01:40 | 37.15349 | -101.78711 | 36864 ft | 552 kts | 73° |
| 2026-04-26 01:40 | 37.17225 | -101.69428 | 36860 ft | 552 kts | 73° |
| 2026-04-26 01:41 | 37.19105 | -101.60085 | 36861 ft | 552 kts | 73° |
| 2026-04-26 01:41 | 37.20968 | -101.50777 | 36857 ft | 552 kts | 73° |
| 2026-04-26 01:42 | 37.22825 | -101.41457 | 36862 ft | 552 kts | 73° |
| 2026-04-26 01:42 | 37.24668 | -101.32185 | 36866 ft | 552 kts | 74° |
| 2026-04-26 01:43 | 37.26509 | -101.22856 | 36862 ft | 552 kts | 74° |
| 2026-04-26 01:43 | 37.28341 | -101.13539 | 36860 ft | 551 kts | 74° |
| 2026-04-26 01:44 | 37.30175 | -101.04179 | 36863 ft | 552 kts | 74° |
| 2026-04-26 01:44 | 37.31988 | -100.94884 | 36858 ft | 549 kts | 73° |
| 2026-04-26 01:45 | 37.33794 | -100.85569 | 36858 ft | 550 kts | 74° |
| 2026-04-26 01:45 | 37.35588 | -100.76288 | 36856 ft | 551 kts | 74° |
| 2026-04-26 01:46 | 37.37386 | -100.66934 | 36853 ft | 551 kts | 73° |
| 2026-04-26 01:46 | 37.39171 | -100.57606 | 36854 ft | 550 kts | 73° |
| 2026-04-26 01:47 | 37.40942 | -100.48308 | 36848 ft | 550 kts | 73° |
| 2026-04-26 01:47 | 37.42707 | -100.39003 | 36846 ft | 551 kts | 73° |
| 2026-04-26 01:48 | 37.44470 | -100.29672 | 36843 ft | 550 kts | 74° |
| 2026-04-26 01:48 | 37.46222 | -100.20333 | 36843 ft | 551 kts | 74° |
| 2026-04-26 01:49 | 37.47971 | -100.10973 | 36842 ft | 551 kts | 75° |
| 2026-04-26 01:49 | 37.49710 | -100.01599 | 36840 ft | 551 kts | 75° |
| 2026-04-26 01:50 | 37.51112 | -99.92115 | 36835 ft | 550 kts | 78° |
| 2026-04-26 01:50 | 37.52348 | -99.82732 | 36830 ft | 546 kts | 78° |
| 2026-04-26 01:51 | 37.53586 | -99.73313 | 36830 ft | 545 kts | 78° |
| 2026-04-26 01:51 | 37.54821 | -99.63942 | 36820 ft | 545 kts | 78° |
| 2026-04-26 01:52 | 37.56059 | -99.54514 | 36822 ft | 546 kts | 78° |
| 2026-04-26 01:52 | 37.57285 | -99.45139 | 36827 ft | 545 kts | 78° |
| 2026-04-26 01:53 | 37.58498 | -99.35780 | 36828 ft | 544 kts | 77° |
| 2026-04-26 01:53 | 37.59708 | -99.26391 | 36825 ft | 544 kts | 78° |
| 2026-04-26 01:54 | 37.60914 | -99.16972 | 36826 ft | 543 kts | 78° |
| 2026-04-26 01:54 | 37.62107 | -99.07607 | 36823 ft | 544 kts | 78° |
| 2026-04-26 01:55 | 37.63291 | -98.98250 | 36827 ft | 544 kts | 78° |
| 2026-04-26 01:55 | 37.64473 | -98.88859 | 36840 ft | 543 kts | 78° |
| 2026-04-26 01:56 | 37.65638 | -98.79496 | 36844 ft | 542 kts | 78° |
| 2026-04-26 01:56 | 37.66801 | -98.70104 | 36843 ft | 542 kts | 78° |
| 2026-04-26 01:57 | 37.67956 | -98.60738 | 36829 ft | 542 kts | 78° |
| 2026-04-26 01:57 | 37.69099 | -98.51374 | 36824 ft | 541 kts | 78° |
| 2026-04-26 01:58 | 37.70231 | -98.42072 | 36818 ft | 541 kts | 78° |
| 2026-04-26 01:58 | 37.71357 | -98.32726 | 36817 ft | 540 kts | 79° |
| 2026-04-26 01:59 | 37.72481 | -98.23354 | 36823 ft | 540 kts | 79° |
| 2026-04-26 01:59 | 37.73588 | -98.14046 | 36813 ft | 539 kts | 79° |
| 2026-04-26 02:00 | 37.74692 | -98.04692 | 36813 ft | 539 kts | 79° |
| 2026-04-26 02:00 | 37.75789 | -97.95347 | 36812 ft | 538 kts | 79° |
| 2026-04-26 02:01 | 37.76870 | -97.86065 | 36801 ft | 537 kts | 79° |
| 2026-04-26 02:01 | 37.77944 | -97.76776 | 36803 ft | 537 kts | 79° |
| 2026-04-26 02:02 | 37.79013 | -97.67479 | 36800 ft | 537 kts | 79° |
| 2026-04-26 02:02 | 37.80072 | -97.58177 | 36814 ft | 537 kts | 79° |
| 2026-04-26 02:03 | 37.81130 | -97.48850 | 36802 ft | 537 kts | 79° |
| 2026-04-26 02:03 | 37.82173 | -97.39546 | 36804 ft | 536 kts | 79° |
| 2026-04-26 02:04 | 37.83215 | -97.30231 | 36801 ft | 537 kts | 79° |
| 2026-04-26 02:04 | 37.84256 | -97.20836 | 36802 ft | 541 kts | 79° |
| 2026-04-26 02:05 | 37.85284 | -97.11471 | 36801 ft | 541 kts | 79° |
| 2026-04-26 02:05 | 37.86311 | -97.02058 | 36809 ft | 541 kts | 79° |
| 2026-04-26 02:06 | 37.87334 | -96.92610 | 36818 ft | 542 kts | 79° |
| 2026-04-26 02:06 | 37.88343 | -96.83241 | 36829 ft | 540 kts | 79° |
| 2026-04-26 02:07 | 37.89748 | -96.73955 | 36826 ft | 538 kts | 74° |
| 2026-04-26 02:07 | 37.91387 | -96.64738 | 36834 ft | 538 kts | 73° |
| 2026-04-26 02:08 | 37.93020 | -96.55547 | 36825 ft | 537 kts | 74° |
| 2026-04-26 02:08 | 37.94633 | -96.46358 | 36827 ft | 537 kts | 74° |
| 2026-04-26 02:09 | 37.96242 | -96.37098 | 36826 ft | 538 kts | 74° |
| 2026-04-26 02:09 | 37.97834 | -96.27891 | 36820 ft | 538 kts | 75° |
| 2026-04-26 02:10 | 37.99428 | -96.18619 | 36821 ft | 538 kts | 75° |
| 2026-04-26 02:10 | 38.01002 | -96.09405 | 36821 ft | 538 kts | 75° |
| 2026-04-26 02:11 | 38.02581 | -96.00132 | 36823 ft | 539 kts | 75° |
| 2026-04-26 02:11 | 38.04149 | -95.90874 | 36833 ft | 540 kts | 75° |
| 2026-04-26 02:12 | 38.05711 | -95.81599 | 36841 ft | 540 kts | 75° |
| 2026-04-26 02:12 | 38.07271 | -95.72295 | 36842 ft | 540 kts | 75° |
| 2026-04-26 02:13 | 38.08818 | -95.63014 | 36844 ft | 539 kts | 75° |
| 2026-04-26 02:13 | 38.10365 | -95.53696 | 36843 ft | 540 kts | 75° |
| 2026-04-26 02:14 | 38.11901 | -95.44389 | 36840 ft | 540 kts | 75° |
| 2026-04-26 02:14 | 38.13419 | -95.35149 | 36840 ft | 539 kts | 75° |
| 2026-04-26 02:15 | 38.14948 | -95.25793 | 36842 ft | 539 kts | 76° |
| 2026-04-26 02:15 | 38.16458 | -95.16496 | 36837 ft | 540 kts | 76° |
| 2026-04-26 02:16 | 38.17965 | -95.07171 | 36845 ft | 541 kts | 76° |
| 2026-04-26 02:16 | 38.19465 | -94.97848 | 36847 ft | 541 kts | 76° |
| 2026-04-26 02:17 | 38.20961 | -94.88506 | 36851 ft | 538 kts | 76° |
| 2026-04-26 02:17 | 38.21695 | -94.83876 | 36596 ft | 531 kts | 76° |
| 2026-04-26 02:17 | 38.22420 | -94.79300 | 36647 ft | 531 kts | 76° |
| 2026-04-26 02:18 | 38.23865 | -94.70183 | 36812 ft | 528 kts | 76° |
| 2026-04-26 02:18 | 38.25306 | -94.61050 | 36841 ft | 528 kts | 76° |
| 2026-04-26 02:19 | 38.26727 | -94.51957 | 36850 ft | 527 kts | 75° |
| 2026-04-26 02:19 | 38.28518 | -94.42947 | 36858 ft | 524 kts | 70° |
| 2026-04-26 02:20 | 38.30560 | -94.34061 | 36855 ft | 523 kts | 70° |
| 2026-04-26 02:20 | 38.32598 | -94.25208 | 36852 ft | 524 kts | 70° |
| 2026-04-26 02:21 | 38.34610 | -94.16354 | 36856 ft | 523 kts | 70° |
| 2026-04-26 02:21 | 38.36623 | -94.07438 | 36859 ft | 523 kts | 70° |
| 2026-04-26 02:22 | 38.38615 | -93.98576 | 36867 ft | 523 kts | 70° |
| 2026-04-26 02:22 | 38.40596 | -93.89732 | 36875 ft | 522 kts | 70° |
| 2026-04-26 02:23 | 38.42589 | -93.80800 | 36872 ft | 523 kts | 70° |
| 2026-04-26 02:23 | 38.44553 | -93.71951 | 36885 ft | 521 kts | 70° |
| 2026-04-26 02:24 | 38.46508 | -93.63118 | 36885 ft | 521 kts | 70° |
| 2026-04-26 02:24 | 38.48463 | -93.54250 | 36882 ft | 521 kts | 70° |
| 2026-04-26 02:25 | 38.50418 | -93.45348 | 36881 ft | 520 kts | 70° |
| 2026-04-26 02:25 | 38.52349 | -93.36520 | 36885 ft | 521 kts | 70° |
| 2026-04-26 02:26 | 38.54274 | -93.27674 | 36879 ft | 520 kts | 71° |
| 2026-04-26 02:26 | 38.56207 | -93.18760 | 36894 ft | 519 kts | 71° |
| 2026-04-26 02:27 | 38.58111 | -93.09957 | 36887 ft | 519 kts | 71° |
| 2026-04-26 02:27 | 38.60017 | -93.01090 | 36903 ft | 519 kts | 71° |
| 2026-04-26 02:28 | 38.61918 | -92.92222 | 36900 ft | 518 kts | 71° |
| 2026-04-26 02:28 | 38.63805 | -92.83368 | 36899 ft | 518 kts | 71° |
| 2026-04-26 02:29 | 38.65692 | -92.74490 | 36914 ft | 518 kts | 71° |
| 2026-04-26 02:29 | 38.67561 | -92.65664 | 36907 ft | 517 kts | 71° |
| 2026-04-26 02:30 | 38.69433 | -92.56789 | 36905 ft | 518 kts | 71° |
| 2026-04-26 02:30 | 38.71288 | -92.47948 | 36908 ft | 517 kts | 71° |
| 2026-04-26 02:31 | 38.73145 | -92.39072 | 36910 ft | 517 kts | 71° |
| 2026-04-26 02:31 | 38.74995 | -92.30187 | 36912 ft | 516 kts | 72° |
| 2026-04-26 02:32 | 38.76825 | -92.21362 | 36915 ft | 516 kts | 72° |
| 2026-04-26 02:32 | 38.78661 | -92.12481 | 36913 ft | 518 kts | 72° |
| 2026-04-26 02:33 | 38.80484 | -92.03612 | 36912 ft | 520 kts | 72° |
| 2026-04-26 02:33 | 38.82325 | -91.94621 | 36904 ft | 520 kts | 72° |
| 2026-04-26 02:34 | 38.84145 | -91.85698 | 36906 ft | 520 kts | 72° |
| 2026-04-26 02:34 | 38.85965 | -91.76730 | 36907 ft | 520 kts | 72° |
| 2026-04-26 02:35 | 38.87770 | -91.67802 | 36906 ft | 519 kts | 72° |
| 2026-04-26 02:35 | 38.89564 | -91.58892 | 36905 ft | 518 kts | 72° |
| 2026-04-26 02:36 | 38.91357 | -91.49953 | 36907 ft | 518 kts | 72° |
| 2026-04-26 02:36 | 38.93132 | -91.41058 | 36904 ft | 518 kts | 72° |
| 2026-04-26 02:37 | 38.94907 | -91.32121 | 36908 ft | 517 kts | 73° |
| 2026-04-26 02:37 | 38.96679 | -91.23174 | 36913 ft | 517 kts | 73° |
| 2026-04-26 02:38 | 38.98436 | -91.14262 | 36926 ft | 518 kts | 73° |
| 2026-04-26 02:38 | 39.00188 | -91.05318 | 36916 ft | 515 kts | 73° |
| 2026-04-26 02:39 | 39.01935 | -90.96370 | 36957 ft | 515 kts | 73° |
| 2026-04-26 02:39 | 39.03667 | -90.87465 | 36966 ft | 515 kts | 73° |
| 2026-04-26 02:40 | 39.05382 | -90.78612 | 36946 ft | 513 kts | 73° |
| 2026-04-26 02:40 | 39.07097 | -90.69705 | 36923 ft | 512 kts | 73° |
| 2026-04-26 02:41 | 39.08794 | -90.60857 | 36915 ft | 511 kts | 73° |
| 2026-04-26 02:41 | 39.10479 | -90.52048 | 36930 ft | 509 kts | 73° |
| 2026-04-26 02:42 | 39.12168 | -90.43163 | 36929 ft | 510 kts | 73° |
| 2026-04-26 02:42 | 39.13829 | -90.34390 | 36931 ft | 508 kts | 74° |
| 2026-04-26 02:43 | 39.16320 | -90.21166 | 36943 ft | 508 kts | 74° |
| 2026-04-26 02:43 | 39.17974 | -90.12324 | 36938 ft | 507 kts | 74° |
| 2026-04-26 02:44 | 39.19610 | -90.03563 | 36946 ft | 505 kts | 74° |
| 2026-04-26 02:44 | 39.21247 | -89.94738 | 36951 ft | 510 kts | 74° |
| 2026-04-26 02:45 | 39.22889 | -89.85847 | 36962 ft | 515 kts | 74° |
| 2026-04-26 02:45 | 39.24542 | -89.76851 | 36963 ft | 519 kts | 74° |
| 2026-04-26 02:46 | 39.26196 | -89.67816 | 36960 ft | 520 kts | 75° |
| 2026-04-26 02:46 | 39.27845 | -89.58765 | 36965 ft | 520 kts | 74° |
| 2026-04-26 02:47 | 39.29485 | -89.49717 | 36977 ft | 520 kts | 75° |
| 2026-04-26 02:47 | 39.31120 | -89.40646 | 36981 ft | 519 kts | 75° |
| 2026-04-26 02:48 | 39.32740 | -89.31628 | 36988 ft | 518 kts | 75° |
| 2026-04-26 02:48 | 39.34357 | -89.22578 | 36952 ft | 518 kts | 75° |
| 2026-04-26 02:49 | 39.35959 | -89.13573 | 36948 ft | 518 kts | 75° |
| 2026-04-26 02:49 | 39.37561 | -89.04522 | 36944 ft | 518 kts | 75° |
| 2026-04-26 02:50 | 39.39154 | -88.95485 | 36961 ft | 517 kts | 76° |
| 2026-04-26 02:50 | 39.40738 | -88.86443 | 36981 ft | 517 kts | 75° |
| 2026-04-26 02:51 | 39.42314 | -88.77403 | 36974 ft | 516 kts | 75° |
| 2026-04-26 02:51 | 39.43884 | -88.68359 | 36975 ft | 516 kts | 75° |
| 2026-04-26 02:52 | 39.45440 | -88.59358 | 36974 ft | 516 kts | 76° |
| 2026-04-26 02:52 | 39.46999 | -88.50298 | 36971 ft | 516 kts | 76° |
| 2026-04-26 02:53 | 39.48540 | -88.41280 | 36978 ft | 515 kts | 76° |
| 2026-04-26 02:53 | 39.50075 | -88.32256 | 36969 ft | 515 kts | 76° |
| 2026-04-26 02:54 | 39.51604 | -88.23225 | 36978 ft | 515 kts | 76° |
| 2026-04-26 02:54 | 39.53118 | -88.14236 | 36989 ft | 514 kts | 76° |
| 2026-04-26 02:55 | 39.54639 | -88.05173 | 36965 ft | 513 kts | 76° |
| 2026-04-26 02:55 | 39.56139 | -87.96186 | 36968 ft | 514 kts | 77° |
| 2026-04-26 02:56 | 39.57639 | -87.87139 | 36963 ft | 513 kts | 77° |
| 2026-04-26 02:56 | 39.59121 | -87.78168 | 36975 ft | 512 kts | 77° |
| 2026-04-26 02:57 | 39.60594 | -87.69191 | 36981 ft | 507 kts | 77° |
| 2026-04-26 02:57 | 39.62044 | -87.60319 | 36990 ft | 506 kts | 77° |
| 2026-04-26 02:58 | 39.63487 | -87.51451 | 36990 ft | 506 kts | 76° |
| 2026-04-26 02:58 | 39.64935 | -87.42501 | 36991 ft | 505 kts | 76° |
| 2026-04-26 02:59 | 39.66364 | -87.33624 | 36981 ft | 505 kts | 77° |
| 2026-04-26 02:59 | 39.67791 | -87.24718 | 36982 ft | 505 kts | 77° |
| 2026-04-26 03:00 | 39.69212 | -87.15801 | 36976 ft | 504 kts | 77° |
| 2026-04-26 03:00 | 39.70612 | -87.06957 | 36982 ft | 503 kts | 77° |
| 2026-04-26 03:01 | 39.72016 | -86.98048 | 36977 ft | 503 kts | 77° |
| 2026-04-26 03:01 | 39.73399 | -86.89233 | 36983 ft | 503 kts | 77° |
| 2026-04-26 03:02 | 39.74792 | -86.80306 | 36973 ft | 503 kts | 77° |
| 2026-04-26 03:02 | 39.76164 | -86.71468 | 36978 ft | 504 kts | 77° |
| 2026-04-26 03:03 | 39.77540 | -86.62552 | 36990 ft | 504 kts | 77° |
| 2026-04-26 03:03 | 39.78904 | -86.53666 | 36993 ft | 504 kts | 77° |
| 2026-04-26 03:04 | 39.80262 | -86.44763 | 36995 ft | 504 kts | 77° |
| 2026-04-26 03:04 | 39.81931 | -86.35916 | 37003 ft | 503 kts | 72° |
| 2026-04-26 03:05 | 39.84262 | -86.27393 | 36998 ft | 502 kts | 68° |
| 2026-04-26 03:05 | 39.86813 | -86.18971 | 37081 ft | 501 kts | 68° |
| 2026-04-26 03:06 | 39.88083 | -86.14777 | 37232 ft | 501 kts | 68° |
| 2026-04-26 03:06 | 39.89350 | -86.10577 | 37377 ft | 501 kts | 68° |
| 2026-04-26 03:06 | 39.90620 | -86.06353 | 37524 ft | 502 kts | 68° |
| 2026-04-26 03:06 | 39.91877 | -86.02157 | 37674 ft | 502 kts | 68° |
| 2026-04-26 03:07 | 39.93150 | -85.97897 | 37812 ft | 502 kts | 68° |
| 2026-04-26 03:07 | 39.94418 | -85.93645 | 37956 ft | 502 kts | 68° |
| 2026-04-26 03:07 | 39.95678 | -85.89412 | 38082 ft | 502 kts | 68° |
| 2026-04-26 03:07 | 39.96929 | -85.85199 | 38224 ft | 502 kts | 68° |
| 2026-04-26 03:08 | 39.98177 | -85.80991 | 38358 ft | 502 kts | 68° |
| 2026-04-26 03:08 | 39.99440 | -85.76731 | 38494 ft | 502 kts | 68° |
| 2026-04-26 03:08 | 40.00692 | -85.72493 | 38623 ft | 503 kts | 68° |
| 2026-04-26 03:08 | 40.01942 | -85.68261 | 38762 ft | 504 kts | 68° |
| 2026-04-26 03:09 | 40.03188 | -85.64029 | 38893 ft | 504 kts | 68° |
| 2026-04-26 03:09 | 40.04453 | -85.59730 | 39013 ft | 505 kts | 68° |
| 2026-04-26 03:09 | 40.06949 | -85.51227 | 39017 ft | 505 kts | 68° |
| 2026-04-26 03:10 | 40.09449 | -85.42690 | 39032 ft | 506 kts | 68° |
| 2026-04-26 03:10 | 40.11951 | -85.34112 | 39018 ft | 506 kts | 68° |
| 2026-04-26 03:11 | 40.14424 | -85.25605 | 39021 ft | 497 kts | 68° |
| 2026-04-26 03:11 | 40.16859 | -85.17200 | 39020 ft | 495 kts | 68° |
| 2026-04-26 03:12 | 40.19285 | -85.08797 | 39013 ft | 495 kts | 68° |
| 2026-04-26 03:12 | 40.21698 | -85.00415 | 39009 ft | 494 kts | 68° |
| 2026-04-26 03:13 | 40.24112 | -84.92010 | 39006 ft | 494 kts | 68° |
| 2026-04-26 03:13 | 40.26521 | -84.83591 | 39003 ft | 500 kts | 68° |
| 2026-04-26 03:14 | 40.28963 | -84.75028 | 39012 ft | 502 kts | 68° |
| 2026-04-26 03:14 | 40.31379 | -84.66524 | 39013 ft | 502 kts | 68° |
| 2026-04-26 03:15 | 40.33803 | -84.57961 | 39010 ft | 502 kts | 68° |
| 2026-04-26 03:15 | 40.36220 | -84.49402 | 39020 ft | 502 kts | 68° |
| 2026-04-26 03:16 | 40.38627 | -84.40845 | 39026 ft | 503 kts | 68° |
| 2026-04-26 03:16 | 40.41029 | -84.32287 | 39025 ft | 503 kts | 69° |
| 2026-04-26 03:17 | 40.43434 | -84.23682 | 39031 ft | 503 kts | 69° |
| 2026-04-26 03:17 | 40.45828 | -84.15086 | 39033 ft | 504 kts | 69° |
| 2026-04-26 03:18 | 40.48223 | -84.06456 | 39022 ft | 504 kts | 69° |
| 2026-04-26 03:18 | 40.50625 | -83.97817 | 39029 ft | 508 kts | 68° |
| 2026-04-26 03:19 | 40.53149 | -83.89162 | 39019 ft | 510 kts | 67° |
| 2026-04-26 03:19 | 40.55703 | -83.80443 | 39023 ft | 510 kts | 67° |
| 2026-04-26 03:20 | 40.58228 | -83.71757 | 39007 ft | 512 kts | 67° |
| 2026-04-26 03:20 | 40.60748 | -83.63038 | 39001 ft | 516 kts | 67° |
| 2026-04-26 03:21 | 40.63297 | -83.54180 | 39002 ft | 518 kts | 67° |
| 2026-04-26 03:21 | 40.65820 | -83.45379 | 39036 ft | 517 kts | 67° |
| 2026-04-26 03:22 | 40.68548 | -83.36630 | 39018 ft | 516 kts | 62° |
| 2026-04-26 03:22 | 40.71932 | -83.28381 | 39023 ft | 514 kts | 56° |
| 2026-04-26 03:23 | 40.75982 | -83.20696 | 39035 ft | 511 kts | 50° |
| 2026-04-26 03:23 | 40.80345 | -83.13300 | 39026 ft | 511 kts | 49° |
| 2026-04-26 03:24 | 40.84692 | -83.05942 | 39019 ft | 510 kts | 49° |
| 2026-04-26 03:24 | 40.89027 | -82.98550 | 39026 ft | 510 kts | 49° |
| 2026-04-26 03:25 | 40.93377 | -82.91100 | 39036 ft | 511 kts | 49° |
| 2026-04-26 03:25 | 40.97675 | -82.83714 | 39041 ft | 510 kts | 49° |
| 2026-04-26 03:26 | 41.01985 | -82.76297 | 39042 ft | 510 kts | 49° |
| 2026-04-26 03:26 | 41.06315 | -82.68829 | 39054 ft | 511 kts | 49° |
| 2026-04-26 03:27 | 41.10617 | -82.61386 | 39065 ft | 512 kts | 50° |
| 2026-04-26 03:27 | 41.14676 | -82.53657 | 39043 ft | 514 kts | 56° |
| 2026-04-26 03:28 | 41.18173 | -82.45393 | 39042 ft | 515 kts | 59° |
| 2026-04-26 03:28 | 41.21525 | -82.37031 | 39026 ft | 515 kts | 59° |
| 2026-04-26 03:29 | 41.24885 | -82.28657 | 39036 ft | 516 kts | 59° |
| 2026-04-26 03:29 | 41.28258 | -82.20261 | 39051 ft | 516 kts | 59° |
| 2026-04-26 03:30 | 41.31622 | -82.11867 | 39046 ft | 516 kts | 60° |
| 2026-04-26 03:30 | 41.34836 | -82.03352 | 39042 ft | 518 kts | 64° |
| 2026-04-26 03:31 | 41.37580 | -81.94515 | 39058 ft | 518 kts | 66° |
| 2026-04-26 03:31 | 41.40245 | -81.85664 | 39060 ft | 518 kts | 66° |
| 2026-04-26 03:32 | 41.42922 | -81.76778 | 39059 ft | 516 kts | 66° |
| 2026-04-26 03:32 | 41.45577 | -81.67954 | 39059 ft | 514 kts | 66° |
| 2026-04-26 03:33 | 41.48237 | -81.59099 | 39057 ft | 514 kts | 66° |
| 2026-04-26 03:33 | 41.50869 | -81.50311 | 39055 ft | 513 kts | 66° |
| 2026-04-26 03:34 | 41.53506 | -81.41480 | 39054 ft | 513 kts | 66° |
| 2026-04-26 03:34 | 41.56136 | -81.32642 | 39052 ft | 514 kts | 66° |
| 2026-04-26 03:35 | 41.58752 | -81.23815 | 39052 ft | 514 kts | 66° |
| 2026-04-26 03:35 | 41.61357 | -81.14995 | 39045 ft | 513 kts | 66° |
| 2026-04-26 03:36 | 41.63965 | -81.06126 | 39036 ft | 514 kts | 66° |
| 2026-04-26 03:36 | 41.66569 | -80.97251 | 39027 ft | 514 kts | 67° |
| 2026-04-26 03:37 | 41.69159 | -80.88386 | 39029 ft | 514 kts | 66° |
| 2026-04-26 03:37 | 41.71747 | -80.79504 | 39034 ft | 515 kts | 66° |
| 2026-04-26 03:38 | 41.74329 | -80.70622 | 39036 ft | 516 kts | 67° |
| 2026-04-26 03:38 | 41.76918 | -80.61672 | 39040 ft | 515 kts | 67° |
| 2026-04-26 03:39 | 41.79482 | -80.52780 | 39028 ft | 515 kts | 67° |
| 2026-04-26 03:39 | 41.82052 | -80.43841 | 39026 ft | 515 kts | 67° |
| 2026-04-26 03:40 | 41.84616 | -80.34884 | 39021 ft | 515 kts | 68° |
| 2026-04-26 03:40 | 41.87162 | -80.25964 | 39025 ft | 514 kts | 67° |
| 2026-04-26 03:41 | 41.89691 | -80.17072 | 39025 ft | 514 kts | 67° |
| 2026-04-26 03:41 | 41.92239 | -80.08083 | 39024 ft | 515 kts | 68° |
| 2026-04-26 03:42 | 41.94764 | -79.99146 | 39024 ft | 516 kts | 68° |
| 2026-04-26 03:42 | 41.97292 | -79.90159 | 39017 ft | 517 kts | 68° |
| 2026-04-26 03:43 | 41.99825 | -79.81117 | 39019 ft | 517 kts | 68° |
| 2026-04-26 03:43 | 42.02336 | -79.72127 | 39000 ft | 516 kts | 68° |
| 2026-04-26 03:44 | 42.04819 | -79.63200 | 38994 ft | 502 kts | 68° |
| 2026-04-26 03:44 | 42.07240 | -79.54469 | 39003 ft | 498 kts | 68° |
| 2026-04-26 03:45 | 42.09645 | -79.45776 | 39018 ft | 498 kts | 68° |
| 2026-04-26 03:45 | 42.12049 | -79.37051 | 39004 ft | 499 kts | 68° |
| 2026-04-26 03:46 | 42.14439 | -79.28343 | 39019 ft | 499 kts | 68° |
| 2026-04-26 03:47 | 42.16970 | -79.14735 | 39013 ft | 503 kts | 85° |
| 2026-04-26 03:47 | 42.16744 | -79.05419 | 39011 ft | 503 kts | 99° |
| 2026-04-26 03:48 | 42.14995 | -78.96310 | 39007 ft | 501 kts | 110° |
| 2026-04-26 03:48 | 42.12725 | -78.87472 | 38992 ft | 501 kts | 111° |
| 2026-04-26 03:49 | 42.10459 | -78.78642 | 38978 ft | 501 kts | 110° |
| 2026-04-26 03:49 | 42.08210 | -78.69782 | 38982 ft | 502 kts | 110° |
| 2026-04-26 03:50 | 42.05975 | -78.60953 | 38973 ft | 502 kts | 110° |
| 2026-04-26 03:50 | 42.03725 | -78.52098 | 38982 ft | 502 kts | 110° |
| 2026-04-26 03:51 | 42.01475 | -78.43267 | 38989 ft | 502 kts | 110° |
| 2026-04-26 03:51 | 41.99205 | -78.34392 | 38983 ft | 502 kts | 111° |
| 2026-04-26 03:52 | 41.96937 | -78.25558 | 38990 ft | 501 kts | 111° |
| 2026-04-26 03:52 | 41.94671 | -78.16759 | 38994 ft | 503 kts | 111° |
| 2026-04-26 03:53 | 41.92385 | -78.07914 | 38990 ft | 503 kts | 111° |
| 2026-04-26 03:53 | 41.90084 | -77.99047 | 38987 ft | 504 kts | 111° |
| 2026-04-26 03:54 | 41.87784 | -77.90216 | 38981 ft | 504 kts | 111° |
| 2026-04-26 03:54 | 41.85467 | -77.81366 | 38982 ft | 504 kts | 111° |
| 2026-04-26 03:55 | 41.83155 | -77.72572 | 38993 ft | 504 kts | 111° |
| 2026-04-26 03:55 | 41.81209 | -77.65187 | 38996 ft | 504 kts | 111° |
| 2026-04-26 03:56 | 41.78487 | -77.54903 | 39003 ft | 503 kts | 111° |
| 2026-04-26 03:56 | 41.76159 | -77.46151 | 39008 ft | 502 kts | 111° |
| 2026-04-26 03:57 | 41.73813 | -77.37354 | 39024 ft | 502 kts | 111° |
| 2026-04-26 03:57 | 41.71479 | -77.28619 | 39011 ft | 502 kts | 112° |
| 2026-04-26 03:58 | 41.69128 | -77.19862 | 39027 ft | 502 kts | 112° |
| 2026-04-26 03:58 | 41.66757 | -77.11072 | 39024 ft | 502 kts | 112° |
| 2026-04-26 03:59 | 41.64395 | -77.02354 | 39022 ft | 502 kts | 112° |
| 2026-04-26 03:59 | 41.62026 | -76.93634 | 39019 ft | 502 kts | 112° |
| 2026-04-26 04:00 | 41.59640 | -76.84875 | 39044 ft | 503 kts | 112° |
| 2026-04-26 04:00 | 41.57243 | -76.76104 | 39028 ft | 504 kts | 112° |
| 2026-04-26 04:01 | 41.54836 | -76.67321 | 39038 ft | 505 kts | 112° |
| 2026-04-26 04:01 | 41.52430 | -76.58573 | 38677 ft | 504 kts | 113° |
| 2026-04-26 04:01 | 41.51222 | -76.54196 | 37859 ft | 511 kts | 113° |
| 2026-04-26 04:02 | 41.50003 | -76.49792 | 36988 ft | 518 kts | 113° |
| 2026-04-26 04:02 | 41.48740 | -76.45232 | 36085 ft | 522 kts | 114° |
| 2026-04-26 04:02 | 41.47505 | -76.40775 | 35514 ft | 522 kts | 114° |
| 2026-04-26 04:02 | 41.46241 | -76.36222 | 34942 ft | 522 kts | 115° |
| 2026-04-26 04:03 | 41.44984 | -76.31701 | 34317 ft | 522 kts | 116° |
| 2026-04-26 04:03 | 41.43721 | -76.27179 | 33545 ft | 524 kts | 115° |
| 2026-04-26 04:03 | 41.42458 | -76.22675 | 32767 ft | 525 kts | 115° |
| 2026-04-26 04:03 | 41.41174 | -76.18111 | 32010 ft | 525 kts | 115° |
| 2026-04-26 04:04 | 41.39901 | -76.13575 | 31350 ft | 523 kts | 114° |
| 2026-04-26 04:04 | 41.38639 | -76.09083 | 30708 ft | 521 kts | 114° |
| 2026-04-26 04:04 | 41.37388 | -76.04630 | 30079 ft | 518 kts | 114° |
| 2026-04-26 04:04 | 41.36118 | -76.00118 | 29439 ft | 516 kts | 114° |
| 2026-04-26 04:05 | 41.34865 | -75.95681 | 28785 ft | 515 kts | 114° |
| 2026-04-26 04:05 | 41.33609 | -75.91237 | 28184 ft | 512 kts | 113° |
| 2026-04-26 04:05 | 41.32380 | -75.86882 | 27789 ft | 505 kts | 113° |
| 2026-04-26 04:05 | 41.31155 | -75.82556 | 27379 ft | 498 kts | 113° |
| 2026-04-26 04:06 | 41.29939 | -75.78267 | 26965 ft | 492 kts | 113° |
| 2026-04-26 04:06 | 41.28743 | -75.74059 | 26548 ft | 486 kts | 113° |
| 2026-04-26 04:06 | 41.27555 | -75.69910 | 26130 ft | 481 kts | 114° |
| 2026-04-26 04:06 | 41.26257 | -75.65843 | 25708 ft | 475 kts | 116° |
| 2026-04-26 04:07 | 41.24935 | -75.61871 | 25279 ft | 470 kts | 116° |
| 2026-04-26 04:07 | 41.23606 | -75.57909 | 24858 ft | 466 kts | 116° |
| 2026-04-26 04:07 | 41.22305 | -75.54034 | 24449 ft | 462 kts | 116° |
| 2026-04-26 04:07 | 41.21004 | -75.50159 | 24042 ft | 458 kts | 116° |
| 2026-04-26 04:08 | 41.19717 | -75.46328 | 23626 ft | 454 kts | 116° |
| 2026-04-26 04:08 | 41.18444 | -75.42545 | 23212 ft | 450 kts | 116° |
| 2026-04-26 04:08 | 41.17176 | -75.38776 | 23033 ft | 440 kts | 116° |
| 2026-04-26 04:08 | 41.15950 | -75.35129 | 23025 ft | 426 kts | 116° |
| 2026-04-26 04:09 | 41.14773 | -75.31630 | 23026 ft | 412 kts | 117° |
| 2026-04-26 04:09 | 41.13624 | -75.28225 | 22993 ft | 399 kts | 117° |
| 2026-04-26 04:09 | 41.12497 | -75.24889 | 22702 ft | 395 kts | 117° |
| 2026-04-26 04:09 | 41.11385 | -75.21607 | 22256 ft | 395 kts | 117° |
| 2026-04-26 04:10 | 41.10264 | -75.18301 | 21840 ft | 394 kts | 116° |
| 2026-04-26 04:10 | 41.09145 | -75.15002 | 21439 ft | 393 kts | 116° |
| 2026-04-26 04:10 | 41.08029 | -75.11713 | 21049 ft | 391 kts | 116° |
| 2026-04-26 04:10 | 41.06915 | -75.08439 | 20667 ft | 389 kts | 116° |
| 2026-04-26 04:11 | 41.05812 | -75.05196 | 20279 ft | 388 kts | 116° |
| 2026-04-26 04:11 | 41.04707 | -75.01948 | 19899 ft | 386 kts | 116° |
| 2026-04-26 04:11 | 41.03613 | -74.98736 | 19526 ft | 384 kts | 116° |
| 2026-04-26 04:11 | 41.02507 | -74.95499 | 19165 ft | 382 kts | 116° |
| 2026-04-26 04:12 | 41.01424 | -74.92325 | 19073 ft | 371 kts | 116° |
| 2026-04-26 04:12 | 41.00439 | -74.89274 | 19071 ft | 358 kts | 112° |
| 2026-04-26 04:12 | 40.99663 | -74.86182 | 19071 ft | 348 kts | 107° |
| 2026-04-26 04:12 | 40.99110 | -74.83076 | 19080 ft | 353 kts | 101° |
| 2026-04-26 04:13 | 40.98712 | -74.79863 | 19084 ft | 355 kts | 99° |
| 2026-04-26 04:13 | 40.98346 | -74.76633 | 19083 ft | 355 kts | 99° |
| 2026-04-26 04:13 | 40.97982 | -74.73401 | 19085 ft | 355 kts | 99° |
| 2026-04-26 04:13 | 40.97611 | -74.70156 | 19087 ft | 355 kts | 99° |
| 2026-04-26 04:14 | 40.97240 | -74.66944 | 19087 ft | 355 kts | 99° |
| 2026-04-26 04:14 | 40.96863 | -74.63724 | 19087 ft | 355 kts | 99° |
| 2026-04-26 04:14 | 40.96484 | -74.60486 | 19085 ft | 355 kts | 99° |
| 2026-04-26 04:14 | 40.96107 | -74.57285 | 19088 ft | 355 kts | 99° |
| 2026-04-26 04:15 | 40.95726 | -74.54072 | 19088 ft | 355 kts | 99° |
| 2026-04-26 04:15 | 40.95343 | -74.50847 | 19088 ft | 356 kts | 99° |